Time;durP1;ratioP1;P1;durP2;ratioP2;P2;SDS_P1;SDS_P2;PMS_P1;PMS_P2;Temp;Humidity;BMP_temperature;BMP_pressure;BME280_temperature;BME280_humidity;BME280_pressure;Samples;Min_cycle;Max_cycle;Signal;HPM_P1;HPM_P2
2022/05/15 00:02:13;;;;;;;5.03;3.70;;;14.50;99.90;;;;;;6030284;23;20996;-85
2022/05/15 00:04:40;;;;;;;4.50;3.30;;;14.40;99.90;;;;;;6032253;23;20473;-85
2022/05/15 00:07:08;;;;;;;4.38;3.70;;;14.30;99.90;;;;;;6033289;23;20469;-86
2022/05/15 00:09:35;;;;;;;5.13;3.33;;;14.20;99.90;;;;;;6030661;23;20583;-86
2022/05/15 00:12:05;;;;;;;3.53;3.10;;;14.20;99.90;;;;;;6034604;23;20441;-86
2022/05/15 00:14:33;;;;;;;4.07;3.13;;;14.10;99.90;;;;;;6033770;23;20495;-85
2022/05/15 00:16:59;;;;;;;3.67;3.30;;;14.00;99.90;;;;;;6033920;23;20474;-86
2022/05/15 00:19:27;;;;;;;3.53;3.33;;;14.00;99.90;;;;;;6032639;23;20449;-85
2022/05/15 00:21:54;;;;;;;3.20;2.97;;;14.00;99.90;;;;;;6030426;23;20499;-86
2022/05/15 00:24:21;;;;;;;3.70;3.40;;;13.90;99.90;;;;;;6029999;23;20526;-86
2022/05/15 00:26:48;;;;;;;3.00;2.80;;;13.80;99.90;;;;;;6033616;23;20619;-86
2022/05/15 00:29:17;;;;;;;3.30;3.10;;;13.80;99.90;;;;;;6033188;23;20979;-86
2022/05/15 00:31:44;;;;;;;3.20;2.90;;;13.80;99.90;;;;;;6033121;23;20524;-87
2022/05/15 00:34:11;;;;;;;4.55;3.00;;;13.70;99.90;;;;;;6032140;23;20460;-86
2022/05/15 00:36:38;;;;;;;3.70;3.40;;;13.60;99.90;;;;;;6032585;23;20593;-86
2022/05/15 00:39:06;;;;;;;3.83;2.83;;;13.60;99.90;;;;;;6031481;23;20538;-86
2022/05/15 00:41:33;;;;;;;3.78;3.40;;;13.50;99.90;;;;;;6034254;23;20185;-86
2022/05/15 00:44:00;;;;;;;4.25;3.05;;;13.50;99.90;;;;;;6031371;23;20404;-86
2022/05/15 00:46:31;;;;;;;3.80;3.50;;;13.40;99.90;;;;;;6034687;23;20273;-86
2022/05/15 00:49:00;;;;;;;4.85;3.55;;;13.40;99.90;;;;;;6030850;23;20554;-86
2022/05/15 00:51:32;;;;;;;3.35;3.05;;;13.40;99.90;;;;;;6033368;23;20239;-86
2022/05/15 00:54:04;;;;;;;4.65;3.53;;;13.30;99.90;;;;;;6032217;23;20191;-87
2022/05/15 00:56:34;;;;;;;4.35;3.88;;;13.30;99.90;;;;;;6029790;23;20201;-86
2022/05/15 00:59:08;;;;;;;3.92;3.55;;;13.30;99.90;;;;;;6031837;23;20538;-86
2022/05/15 01:01:36;;;;;;;5.72;4.05;;;13.30;99.90;;;;;;6033046;23;20220;-86
2022/05/15 01:04:04;;;;;;;4.53;3.83;;;13.20;99.90;;;;;;6033022;23;20691;-86
2022/05/15 01:06:31;;;;;;;4.28;3.50;;;13.20;99.90;;;;;;6030385;23;20308;-86
2022/05/15 01:09:02;;;;;;;4.28;3.65;;;13.20;99.90;;;;;;6033000;23;20200;-85
2022/05/15 01:11:29;;;;;;;4.93;3.60;;;13.10;99.90;;;;;;6037372;23;20249;-86
2022/05/15 01:13:56;;;;;;;4.47;3.70;;;13.10;99.90;;;;;;6041867;23;20217;-86
2022/05/15 01:16:26;;;;;;;5.10;3.80;;;13.10;99.90;;;;;;6040799;23;20240;-86
2022/05/15 01:18:58;;;;;;;4.05;3.65;;;13.00;99.90;;;;;;6024149;23;20217;-86
2022/05/15 01:21:30;;;;;;;3.78;3.47;;;13.00;99.90;;;;;;6037336;23;20236;-86
2022/05/15 01:24:00;;;;;;;3.72;3.53;;;12.90;99.90;;;;;;6043451;23;20209;-86
2022/05/15 01:26:27;;;;;;;4.15;3.38;;;12.80;99.90;;;;;;6042702;23;20193;-86
2022/05/15 01:28:55;;;;;;;4.05;3.53;;;12.80;99.90;;;;;;6043426;23;20232;-86
2022/05/15 01:31:22;;;;;;;4.28;3.88;;;12.80;99.90;;;;;;6045711;23;20267;-86
2022/05/15 01:33:50;;;;;;;4.85;3.78;;;12.80;99.90;;;;;;6043926;23;20216;-85
2022/05/15 01:36:19;;;;;;;4.05;3.65;;;12.70;99.90;;;;;;6062998;23;20220;-86
2022/05/15 01:38:48;;;;;;;3.58;3.28;;;12.70;99.90;;;;;;6052740;23;20194;-86
2022/05/15 01:41:16;;;;;;;4.30;3.50;;;12.70;99.90;;;;;;6039332;23;20223;-86
2022/05/15 01:43:46;;;;;;;3.90;3.50;;;12.50;99.90;;;;;;6044592;23;20189;-86
2022/05/15 01:46:14;;;;;;;3.20;2.90;;;12.50;99.90;;;;;;6035974;23;20653;-86
2022/05/15 01:48:41;;;;;;;5.20;3.85;;;12.50;99.90;;;;;;6033345;23;20247;-86
2022/05/15 01:51:08;;;;;;;4.20;3.83;;;12.40;99.90;;;;;;6031302;23;20308;-86
2022/05/15 01:53:36;;;;;;;3.95;3.65;;;12.40;99.90;;;;;;6033585;23;20190;-86
2022/05/15 01:56:05;;;;;;;4.05;3.70;;;12.40;99.90;;;;;;6029870;23;20251;-86
2022/05/15 01:58:33;;;;;;;4.45;3.80;;;12.30;99.90;;;;;;6033520;23;20689;-85
2022/05/15 02:01:00;;;;;;;4.13;3.50;;;12.20;99.90;;;;;;6031682;23;20197;-86
2022/05/15 02:03:27;;;;;;;4.65;4.00;;;12.20;99.90;;;;;;6031968;23;20209;-86
2022/05/15 02:05:54;;;;;;;4.00;3.60;;;12.20;99.90;;;;;;6025063;23;20280;-86
2022/05/15 02:08:22;;;;;;;4.38;3.97;;;12.20;99.90;;;;;;6033435;23;20289;-86
2022/05/15 02:10:49;;;;;;;4.47;3.75;;;12.30;99.90;;;;;;6031048;23;20217;-86
2022/05/15 02:13:18;;;;;;;4.63;4.10;;;12.30;99.90;;;;;;6033745;23;20240;-85
2022/05/15 02:15:46;;;;;;;4.30;3.90;;;12.30;99.90;;;;;;6033081;23;20213;-86
2022/05/15 02:18:12;;;;;;;6.53;4.60;;;12.40;99.90;;;;;;6029329;23;20213;-86
2022/05/15 02:20:39;;;;;;;5.32;4.28;;;12.40;99.90;;;;;;6033673;23;20301;-86
2022/05/15 02:23:08;;;;;;;4.95;4.55;;;12.50;99.90;;;;;;6032766;23;20289;-86
2022/05/15 02:25:35;;;;;;;4.65;4.20;;;12.60;99.90;;;;;;6030406;23;20217;-86
2022/05/15 02:28:02;;;;;;;5.10;4.60;;;12.60;99.90;;;;;;6026642;23;20218;-86
2022/05/15 02:30:32;;;;;;;5.13;4.63;;;12.70;99.90;;;;;;6034329;23;20213;-86
2022/05/15 02:32:59;;;;;;;5.00;4.60;;;12.80;99.90;;;;;;5995996;23;20273;-86
2022/05/15 02:35:26;;;;;;;4.97;4.53;;;12.80;99.90;;;;;;6033447;23;20272;-85
2022/05/15 02:37:53;;;;;;;5.13;4.63;;;12.80;99.90;;;;;;6032470;23;20213;-85
2022/05/15 02:40:23;;;;;;;5.20;4.70;;;12.80;99.90;;;;;;6027256;23;20276;-86
2022/05/15 02:42:51;;;;;;;4.82;4.32;;;12.80;99.90;;;;;;6032721;23;20205;-86
2022/05/15 02:45:18;;;;;;;5.47;4.93;;;12.80;99.90;;;;;;6034013;23;20189;-86
2022/05/15 02:47:47;;;;;;;5.22;4.57;;;12.80;99.90;;;;;;6025635;23;20292;-85
2022/05/15 02:53:02;;;;;;;5.28;4.88;;;12.70;99.90;;;;;;6033205;23;20193;-86
2022/05/15 02:55:29;;;;;;;4.72;4.40;;;12.70;99.90;;;;;;6034844;23;20185;-86
2022/05/15 02:57:57;;;;;;;5.63;5.15;;;12.60;99.90;;;;;;6033829;23;20218;-86
2022/05/15 03:00:27;;;;;;;5.63;5.13;;;12.60;99.90;;;;;;6030674;23;20251;-86
2022/05/15 03:02:56;;;;;;;5.25;4.85;;;12.70;99.90;;;;;;6025672;23;20189;-86
2022/05/15 03:05:23;;;;;;;6.03;5.10;;;12.60;99.90;;;;;;6031152;23;20228;-85
2022/05/15 03:07:52;;;;;;;5.03;4.55;;;12.60;99.90;;;;;;6033411;23;20692;-86
2022/05/15 03:10:21;;;;;;;5.30;4.85;;;12.60;99.90;;;;;;6033032;23;20596;-85
2022/05/15 03:12:48;;;;;;;6.80;4.80;;;12.50;99.90;;;;;;6033959;23;20221;-86
2022/05/15 03:15:16;;;;;;;5.35;4.93;;;12.50;99.90;;;;;;6042979;23;20268;-85
2022/05/15 03:17:44;;;;;;;5.00;4.60;;;12.50;99.90;;;;;;6040866;23;20209;-85
2022/05/15 03:20:15;;;;;;;6.88;5.90;;;12.50;99.90;;;;;;6033217;23;20224;-85
2022/05/15 03:22:42;;;;;;;4.78;4.38;;;12.50;99.90;;;;;;6034727;23;20613;-86
2022/05/15 03:25:10;;;;;;;6.00;4.65;;;12.40;99.90;;;;;;6033456;23;20185;-86
2022/05/15 03:27:37;;;;;;;4.90;4.40;;;12.40;99.90;;;;;;6034110;23;20213;-86
2022/05/15 03:30:06;;;;;;;4.70;4.30;;;12.40;99.90;;;;;;6030112;23;20263;-85
2022/05/15 03:32:33;;;;;;;5.22;4.82;;;12.30;99.90;;;;;;6028995;23;20221;-85
2022/05/15 03:35:00;;;;;;;6.45;4.85;;;12.30;99.90;;;;;;6033672;23;20703;-85
2022/05/15 03:37:28;;;;;;;5.30;4.80;;;12.10;99.90;;;;;;6032775;23;20244;-85
2022/05/15 03:39:56;;;;;;;5.97;5.47;;;12.00;99.90;;;;;;6033242;23;20276;-85
2022/05/15 03:42:24;;;;;;;5.47;4.90;;;11.90;99.90;;;;;;6033372;23;20207;-85
2022/05/15 03:44:52;;;;;;;5.80;4.80;;;11.80;99.90;;;;;;6027916;23;20214;-86
2022/05/15 03:47:19;;;;;;;5.78;5.00;;;11.70;99.90;;;;;;6033112;23;20223;-86
2022/05/15 03:49:46;;;;;;;5.72;5.13;;;11.70;99.90;;;;;;6033131;23;20640;-86
2022/05/15 03:52:14;;;;;;;4.70;4.25;;;11.70;99.90;;;;;;6030292;23;20699;-86
2022/05/15 03:54:42;;;;;;;6.45;4.80;;;11.70;99.90;;;;;;6026891;23;20269;-86
2022/05/15 03:57:09;;;;;;;6.10;5.15;;;11.70;99.90;;;;;;6032414;23;20555;-86
2022/05/15 03:59:40;;;;;;;5.50;4.53;;;11.70;99.90;;;;;;6032329;23;20193;-85
2022/05/15 04:02:09;;;;;;;4.75;4.35;;;11.70;99.90;;;;;;6021535;23;20201;-86
2022/05/15 04:04:36;;;;;;;4.70;4.30;;;11.70;99.90;;;;;;6033440;23;20228;-85
2022/05/15 04:07:06;;;;;;;5.07;4.60;;;11.80;99.90;;;;;;6034150;23;20263;-85
2022/05/15 04:09:36;;;;;;;5.30;4.82;;;11.80;99.90;;;;;;6032896;23;20233;-85
2022/05/15 04:12:05;;;;;;;4.97;4.57;;;11.80;99.90;;;;;;6032978;23;20260;-85
2022/05/15 04:14:33;;;;;;;5.20;4.80;;;11.90;99.90;;;;;;6031931;23;20225;-85
2022/05/15 04:17:00;;;;;;;5.10;4.70;;;11.90;99.90;;;;;;6034246;23;20237;-85
2022/05/15 04:19:29;;;;;;;4.28;3.97;;;11.90;99.90;;;;;;6025826;23;20200;-85
2022/05/15 04:21:58;;;;;;;4.47;4.18;;;12.00;99.90;;;;;;6036605;23;20198;-86
2022/05/15 04:24:25;;;;;;;5.50;5.00;;;12.00;99.90;;;;;;6057685;23;20201;-86
2022/05/15 04:26:52;;;;;;;5.60;5.10;;;12.00;99.90;;;;;;6054829;23;20210;-85
2022/05/15 04:29:20;;;;;;;5.32;4.93;;;12.10;99.90;;;;;;6037583;23;20265;-85
2022/05/15 04:31:47;;;;;;;5.32;4.82;;;12.20;99.90;;;;;;6034477;23;20221;-85
2022/05/15 04:34:14;;;;;;;5.35;4.85;;;12.20;99.90;;;;;;6033541;23;20301;-85
2022/05/15 04:36:42;;;;;;;5.57;5.07;;;12.20;99.90;;;;;;6034008;23;20210;-85
2022/05/15 04:39:09;;;;;;;4.95;4.55;;;12.20;99.90;;;;;;6033333;23;20251;-85
2022/05/15 04:41:36;;;;;;;9.30;5.38;;;12.20;99.90;;;;;;6033194;23;20220;-85
2022/05/15 04:44:04;;;;;;;4.95;4.53;;;12.20;99.90;;;;;;6031478;23;20208;-86
2022/05/15 04:46:33;;;;;;;5.03;4.70;;;12.10;99.90;;;;;;6044463;23;20220;-85
2022/05/15 04:49:00;;;;;;;6.75;4.78;;;12.10;99.90;;;;;;6036076;23;20309;-85
2022/05/15 04:51:28;;;;;;;7.30;4.70;;;12.00;99.90;;;;;;6032681;23;20588;-85
2022/05/15 04:53:56;;;;;;;4.90;4.50;;;12.10;99.90;;;;;;6031471;23;20193;-86
2022/05/15 04:56:23;;;;;;;4.75;4.35;;;12.10;99.90;;;;;;6032820;23;20224;-86
2022/05/15 04:58:51;;;;;;;5.78;4.70;;;12.10;99.90;;;;;;6033090;23;20268;-86
2022/05/15 05:01:18;;;;;;;5.32;4.68;;;12.20;99.90;;;;;;6032296;23;20302;-85
2022/05/15 05:03:46;;;;;;;4.97;4.47;;;12.30;99.90;;;;;;6033664;23;20192;-85
2022/05/15 05:06:13;;;;;;;4.55;4.15;;;12.30;99.90;;;;;;6031962;23;20285;-85
2022/05/15 05:08:41;;;;;;;4.40;4.00;;;12.40;99.90;;;;;;6034098;23;20230;-85
2022/05/15 05:11:08;;;;;;;5.22;4.20;;;12.50;99.90;;;;;;6026267;23;20672;-85
2022/05/15 05:13:34;;;;;;;4.32;3.92;;;12.60;99.90;;;;;;6034007;23;20312;-85
2022/05/15 05:16:02;;;;;;;3.78;3.47;;;12.70;99.90;;;;;;6030340;23;20205;-86
2022/05/15 05:18:29;;;;;;;3.60;3.30;;;12.80;99.90;;;;;;6030248;23;20268;-85
2022/05/15 05:20:57;;;;;;;4.20;3.80;;;12.90;99.90;;;;;;6033163;23;20190;-85
2022/05/15 05:23:24;;;;;;;3.95;3.65;;;12.90;99.90;;;;;;6033681;23;20221;-85
2022/05/15 05:25:51;;;;;;;4.95;4.30;;;12.90;99.90;;;;;;6031647;23;20197;-88
2022/05/15 05:28:18;;;;;;;3.80;3.35;;;12.90;99.90;;;;;;6034173;23;20213;-87
2022/05/15 05:30:45;;;;;;;4.72;4.32;;;13.00;99.90;;;;;;6026939;23;20293;-86
2022/05/15 05:33:13;;;;;;;4.10;3.70;;;13.00;99.90;;;;;;6044653;23;20240;-85
2022/05/15 05:35:41;;;;;;;4.40;4.00;;;13.10;99.90;;;;;;6033101;23;20337;-86
2022/05/15 05:38:09;;;;;;;3.93;3.60;;;13.10;99.90;;;;;;6037367;23;20221;-87
2022/05/15 05:40:37;;;;;;;4.43;3.65;;;13.10;99.90;;;;;;6025113;23;20468;-84
2022/05/15 05:43:06;;;;;;;4.88;3.50;;;13.20;99.90;;;;;;6034868;23;20272;-85
2022/05/15 05:45:33;;;;;;;4.50;4.10;;;13.30;99.90;;;;;;6033265;23;20592;-86
2022/05/15 05:48:00;;;;;;;3.58;3.28;;;13.50;99.90;;;;;;6030992;23;20545;-92
2022/05/15 05:50:28;;;;;;;4.90;3.50;;;13.70;99.90;;;;;;6034837;23;20539;-91
2022/05/15 05:52:57;;;;;;;3.77;3.40;;;13.80;99.90;;;;;;6033936;23;20537;-85
2022/05/15 05:55:27;;;;;;;3.87;3.57;;;14.00;99.90;;;;;;6025355;23;20446;-82
2022/05/15 05:57:54;;;;;;;3.90;3.60;;;14.20;99.90;;;;;;6029098;23;20548;-82
2022/05/15 06:00:24;;;;;;;4.20;3.87;;;14.30;99.90;;;;;;6032562;23;20468;-83
2022/05/15 06:02:52;;;;;;;4.60;3.67;;;14.50;99.90;;;;;;6028811;23;21268;-83
2022/05/15 06:05:19;;;;;;;3.50;3.20;;;14.70;99.90;;;;;;6026799;23;20444;-83
2022/05/15 06:07:46;;;;;;;3.53;3.23;;;14.80;99.90;;;;;;6027202;23;20553;-82
2022/05/15 06:10:14;;;;;;;3.40;3.10;;;15.00;99.90;;;;;;6029327;23;20442;-82
2022/05/15 06:12:45;;;;;;;3.37;3.07;;;15.10;99.90;;;;;;6030887;23;20485;-82
2022/05/15 06:15:12;;;;;;;3.60;3.30;;;15.20;99.90;;;;;;6035323;23;20443;-81
2022/05/15 06:17:40;;;;;;;3.70;3.30;;;15.30;99.90;;;;;;6033098;23;20498;-82
2022/05/15 06:20:12;;;;;;;3.77;3.47;;;15.40;99.90;;;;;;6033439;23;20471;-82
2022/05/15 06:22:38;;;;;;;3.80;3.40;;;15.60;99.90;;;;;;6029298;23;20446;-82
2022/05/15 06:25:07;;;;;;;5.40;3.37;;;15.70;99.90;;;;;;6033352;23;20859;-83
2022/05/15 06:27:34;;;;;;;3.77;3.23;;;15.80;99.90;;;;;;6028836;23;20880;-82
2022/05/15 06:30:03;;;;;;;3.67;3.33;;;15.90;99.90;;;;;;6034673;23;20498;-80
2022/05/15 06:32:30;;;;;;;3.40;3.10;;;16.00;99.90;;;;;;6025766;23;20479;-78
2022/05/15 06:34:57;;;;;;;4.93;2.57;;;16.20;99.90;;;;;;6031774;23;20470;-79
2022/05/15 06:37:24;;;;;;;3.97;3.23;;;16.40;99.90;;;;;;6031725;23;21231;-78
2022/05/15 06:39:51;;;;;;;3.87;3.10;;;16.50;99.90;;;;;;6032674;23;20478;-79
2022/05/15 06:42:18;;;;;;;3.87;3.23;;;16.60;99.90;;;;;;6029611;23;20456;-79
2022/05/15 06:44:45;;;;;;;3.03;2.60;;;16.80;99.90;;;;;;6032204;23;20523;-78
2022/05/15 06:47:14;;;;;;;4.93;3.20;;;16.90;99.90;;;;;;6031109;23;20563;-78
2022/05/15 06:49:41;;;;;;;3.63;3.33;;;17.20;99.90;;;;;;6031442;23;20527;-78
2022/05/15 06:52:08;;;;;;;4.70;3.03;;;17.30;99.90;;;;;;6031215;23;20492;-78
2022/05/15 06:54:35;;;;;;;3.23;2.90;;;17.50;99.90;;;;;;6023455;23;20445;-79
2022/05/15 06:59:47;;;;;;;3.30;2.40;;;18.00;99.90;;;;;;6026588;23;20445;-85
2022/05/15 07:02:16;;;;;;;2.57;2.37;;;18.30;99.90;;;;;;6038415;23;20458;-86
2022/05/15 07:04:43;;;;;;;4.03;2.83;;;18.50;99.90;;;;;;6035192;23;20440;-85
2022/05/15 07:07:10;;;;;;;2.73;2.53;;;18.80;99.90;;;;;;6047562;23;20482;-83
2022/05/15 07:09:37;;;;;;;3.80;2.80;;;19.00;99.90;;;;;;6054663;23;20434;-83
2022/05/15 07:12:06;;;;;;;2.57;2.20;;;19.20;99.90;;;;;;6051844;23;20491;-82
2022/05/15 07:14:34;;;;;;;4.37;2.60;;;19.50;99.90;;;;;;6043394;23;20500;-81
2022/05/15 07:17:01;;;;;;;4.00;2.70;;;19.80;99.90;;;;;;6046246;23;20492;-80
2022/05/15 07:19:30;;;;;;;3.40;2.70;;;20.30;99.90;;;;;;6034657;23;20527;-81
2022/05/15 07:21:59;;;;;;;2.80;2.60;;;20.90;99.90;;;;;;6034655;23;20449;-81
2022/05/15 07:24:28;;;;;;;2.90;2.60;;;21.60;99.90;;;;;;6025536;23;20451;-81
2022/05/15 07:26:55;;;;;;;4.83;2.60;;;22.30;99.90;;;;;;6043418;23;20986;-81
2022/05/15 07:29:24;;;;;;;2.57;2.20;;;22.80;98.50;;;;;;6040630;23;20953;-80
2022/05/15 07:31:52;;;;;;;2.80;2.60;;;23.30;97.60;;;;;;6048821;23;20469;-78
2022/05/15 07:34:19;;;;;;;3.00;2.30;;;23.90;95.60;;;;;;6032908;23;20448;-74
2022/05/15 07:36:50;;;;;;;4.37;2.30;;;24.40;94.80;;;;;;6036409;23;20463;-83
2022/05/15 07:39:18;;;;;;;4.03;1.97;;;24.80;93.20;;;;;;6033455;23;20494;-81
2022/05/15 07:41:45;;;;;;;2.97;2.67;;;24.90;91.60;;;;;;6027866;23;20458;-82
2022/05/15 07:44:12;;;;;;;2.77;2.10;;;24.80;91.20;;;;;;6025883;23;20493;-82
2022/05/15 07:46:41;;;;;;;3.10;2.40;;;24.90;91.50;;;;;;6047060;23;20463;-82
2022/05/15 07:49:08;;;;;;;3.10;2.20;;;25.10;91.60;;;;;;6040267;23;20453;-82
2022/05/15 07:51:37;;;;;;;3.60;2.27;;;25.60;90.00;;;;;;6032195;23;20445;-82
2022/05/15 07:54:05;;;;;;;3.73;2.43;;;25.90;88.20;;;;;;6033857;23;20555;-82
2022/05/15 07:56:32;;;;;;;2.77;2.20;;;25.90;85.80;;;;;;6034780;23;20492;-82
2022/05/15 07:58:59;;;;;;;3.33;2.30;;;26.30;85.50;;;;;;6027225;23;20463;-82
2022/05/15 08:01:26;;;;;;;2.50;2.30;;;26.60;83.80;;;;;;6025552;23;20507;-82
2022/05/15 08:03:53;;;;;;;3.40;2.50;;;27.10;81.80;;;;;;6029586;23;20936;-82
2022/05/15 08:09:07;;;;;;;3.40;2.10;;;27.70;78.90;;;;;;5994594;23;20578;-82
2022/05/15 08:11:34;;;;;;;2.97;2.20;;;28.20;77.30;;;;;;6023479;23;20852;-82
2022/05/15 08:14:02;;;;;;;3.00;2.50;;;28.70;74.90;;;;;;6030440;23;20464;-82
2022/05/15 08:16:29;;;;;;;3.33;2.30;;;28.40;73.00;;;;;;6033369;23;20470;-82
2022/05/15 08:24:28;;;;;;;2.40;2.20;;;27.70;69.50;;;;;;6023383;23;20441;-81
2022/05/15 08:26:54;;;;;;;2.57;2.07;;;27.90;69.40;;;;;;6033376;23;20488;-81
2022/05/15 08:29:21;;;;;;;3.30;2.40;;;27.90;68.90;;;;;;6030503;23;20433;-81
2022/05/15 08:31:48;;;;;;;2.97;2.13;;;27.50;69.80;;;;;;6027942;23;20526;-81
2022/05/15 08:34:16;;;;;;;2.60;2.17;;;27.30;72.00;;;;;;6034758;23;20566;-81
2022/05/15 08:36:44;;;;;;;2.63;2.37;;;27.60;70.40;;;;;;6025962;23;20467;-81
2022/05/15 08:39:12;;;;;;;3.13;2.10;;;27.70;69.00;;;;;;6033661;23;20482;-89
2022/05/15 08:41:48;;;;;;;2.17;1.70;;;27.50;68.80;;;;;;6031993;23;20458;-81
2022/05/15 08:44:19;;;;;;;3.50;1.93;;;27.70;70.70;;;;;;6027212;23;20508;-82
2022/05/15 08:47:16;;;;;;;2.47;2.27;;;28.30;70.10;;;;;;6025984;23;20534;-82
2022/05/15 08:49:48;;;;;;;2.10;1.90;;;28.60;70.00;;;;;;6027348;23;20516;-83
2022/05/15 08:52:18;;;;;;;3.63;2.27;;;28.90;68.10;;;;;;6025897;23;20437;-83
2022/05/15 08:54:53;;;;;;;3.47;2.10;;;29.00;68.20;;;;;;6025588;23;20511;-83
2022/05/15 08:57:29;;;;;;;3.13;2.03;;;29.60;65.80;;;;;;6033384;23;20530;-83
2022/05/15 08:59:59;;;;;;;2.27;2.07;;;30.00;66.60;;;;;;6023498;23;20881;-83
2022/05/15 09:02:26;;;;;;;3.00;1.73;;;30.60;65.30;;;;;;6030286;23;20468;-83
2022/05/15 09:04:54;;;;;;;2.40;2.17;;;30.50;62.30;;;;;;6022362;23;20436;-82
2022/05/15 09:07:40;;;;;;;4.07;1.90;;;30.70;61.40;;;;;;6030092;23;20480;-82
2022/05/15 09:10:21;;;;;;;2.40;1.97;;;31.00;59.70;;;;;;6028664;23;20440;-89
2022/05/15 09:12:57;;;;;;;4.20;2.00;;;30.20;59.40;;;;;;6026980;23;20464;-82
2022/05/15 09:15:29;;;;;;;2.20;1.77;;;30.50;60.50;;;;;;6027856;23;20458;-93
2022/05/15 09:18:02;;;;;;;3.60;2.00;;;30.40;60.50;;;;;;6036058;23;20433;-86
2022/05/15 09:20:37;;;;;;;2.70;2.20;;;30.50;59.90;;;;;;6044987;23;20444;-85
2022/05/15 09:23:14;;;;;;;2.10;1.90;;;30.40;59.80;;;;;;6031589;23;20522;-93
2022/05/15 09:25:41;;;;;;;3.00;2.17;;;30.80;58.90;;;;;;6025557;23;20472;-93
2022/05/15 09:28:13;;;;;;;2.40;2.20;;;31.40;57.70;;;;;;6031967;23;20463;-93
2022/05/15 09:30:42;;;;;;;3.50;2.17;;;31.80;58.00;;;;;;6036333;23;20506;-94
2022/05/15 09:33:24;;;;;;;3.23;1.90;;;32.20;57.30;;;;;;6033960;23;20464;-94
2022/05/15 09:35:51;;;;;;;2.00;1.80;;;32.00;55.40;;;;;;6033834;23;20539;-94
2022/05/15 09:38:29;;;;;;;2.50;2.03;;;32.20;55.40;;;;;;6011192;23;20531;-95
2022/05/15 09:43:56;;;;;;;3.07;2.20;;;32.30;54.50;;;;;;6000038;23;20535;-92
2022/05/15 09:46:25;;;;;;;2.43;2.00;;;32.30;55.00;;;;;;6031171;23;20491;-93
2022/05/15 09:49:00;;;;;;;2.83;1.83;;;32.40;53.20;;;;;;6031152;23;20475;-94
2022/05/15 09:51:34;;;;;;;2.87;2.03;;;32.30;53.20;;;;;;6037478;23;20558;-92
2022/05/15 09:54:01;;;;;;;2.23;2.00;;;32.50;54.20;;;;;;6033899;23;20464;-94
2022/05/15 09:56:31;;;;;;;2.60;1.60;;;32.70;53.10;;;;;;6030005;23;20467;-93
2022/05/15 09:59:09;;;;;;;2.00;1.80;;;33.30;52.70;;;;;;6047744;23;20427;-93
2022/05/15 10:01:39;;;;;;;3.97;2.20;;;33.60;51.20;;;;;;6059680;23;20523;-93
2022/05/15 10:04:09;;;;;;;3.10;2.03;;;33.20;51.40;;;;;;6040590;23;20823;-93
2022/05/15 10:06:49;;;;;;;3.23;1.90;;;32.70;52.10;;;;;;6037272;23;20455;-94
2022/05/15 10:09:24;;;;;;;3.20;1.87;;;32.70;52.50;;;;;;6032043;23;20433;-93
2022/05/15 10:11:56;;;;;;;2.10;1.60;;;32.60;50.80;;;;;;6028104;23;20436;-93
2022/05/15 10:14:30;;;;;;;2.17;1.97;;;33.10;50.90;;;;;;6025899;23;20460;-92
2022/05/15 10:17:01;;;;;;;2.13;1.90;;;32.60;49.50;;;;;;6022897;23;20455;-91
2022/05/15 10:19:34;;;;;;;2.60;1.80;;;32.20;50.80;;;;;;6031176;23;20799;-90
2022/05/15 10:22:29;;;;;;;2.80;1.83;;;32.40;50.70;;;;;;6027378;23;20432;-91
2022/05/15 10:25:00;;;;;;;2.63;1.90;;;32.50;50.40;;;;;;6028142;23;20452;-90
2022/05/15 10:27:31;;;;;;;2.80;2.20;;;33.10;50.50;;;;;;6027231;23;20530;-90
2022/05/15 10:30:04;;;;;;;2.00;1.80;;;33.20;49.30;;;;;;6029596;23;20479;-88
2022/05/15 10:32:39;;;;;;;2.37;1.83;;;33.00;49.30;;;;;;6031391;23;20444;-87
2022/05/15 10:35:07;;;;;;;2.30;1.73;;;32.40;50.00;;;;;;6027441;23;20927;-85
2022/05/15 10:37:59;;;;;;;2.67;1.80;;;32.30;49.70;;;;;;6032305;23;20452;-86
2022/05/15 10:40:37;;;;;;;3.17;1.70;;;32.50;49.40;;;;;;6023044;23;20532;-86
2022/05/15 10:43:32;;;;;;;4.47;1.60;;;33.00;49.30;;;;;;6030334;23;20467;-85
2022/05/15 10:46:07;;;;;;;3.83;2.00;;;33.60;49.30;;;;;;6026612;23;20468;-86
2022/05/15 10:48:47;;;;;;;2.60;1.87;;;34.50;47.50;;;;;;6032663;23;20435;-85
2022/05/15 10:51:19;;;;;;;2.33;1.70;;;34.50;47.40;;;;;;6041821;23;20475;-86
2022/05/15 10:59:46;;;;;;;3.43;1.77;;;35.30;46.70;;;;;;6031632;23;20531;-87
2022/05/15 11:02:44;;;;;;;2.70;1.83;;;35.50;45.50;;;;;;6026268;23;20443;-82
2022/05/15 11:05:17;;;;;;;2.13;1.93;;;34.60;46.40;;;;;;6027315;23;20436;-84
2022/05/15 11:07:50;;;;;;;2.17;1.80;;;34.40;46.50;;;;;;6015234;23;20494;-84
2022/05/15 11:10:24;;;;;;;2.30;1.50;;;34.20;47.50;;;;;;6020193;23;20784;-85
2022/05/15 11:13:01;;;;;;;2.73;1.73;;;34.00;46.70;;;;;;6025588;23;20490;-84
2022/05/15 11:15:39;;;;;;;4.37;2.33;;;33.30;47.60;;;;;;6030744;23;20814;-85
2022/05/15 11:18:21;;;;;;;3.40;1.93;;;33.00;47.80;;;;;;6033599;23;20451;-84
2022/05/15 11:20:54;;;;;;;2.57;1.80;;;33.10;48.50;;;;;;6026561;23;20448;-85
2022/05/15 11:23:26;;;;;;;3.03;1.60;;;33.20;47.70;;;;;;6032523;23;20463;-85
2022/05/15 11:25:57;;;;;;;2.33;1.90;;;32.60;48.70;;;;;;6029161;23;20456;-84
2022/05/15 11:28:31;;;;;;;2.47;1.77;;;32.50;48.10;;;;;;6021430;23;20492;-87
2022/05/15 11:31:03;;;;;;;2.30;2.10;;;32.80;49.20;;;;;;6032798;23;20501;-78
2022/05/15 11:33:50;;;;;;;3.03;2.00;;;33.20;47.50;;;;;;6036498;23;20464;-80
2022/05/15 11:36:31;;;;;;;2.00;1.70;;;33.60;47.50;;;;;;6036330;23;20464;-81
2022/05/15 11:39:02;;;;;;;2.90;2.07;;;34.10;47.10;;;;;;6037421;23;20447;-77
2022/05/15 11:42:09;;;;;;;2.30;1.90;;;34.00;47.30;;;;;;6037394;23;20566;-77
2022/05/15 11:44:38;;;;;;;4.83;2.10;;;34.10;46.90;;;;;;6033025;23;20871;-78
2022/05/15 11:47:26;;;;;;;3.20;2.10;;;33.90;46.50;;;;;;6023429;23;20452;-88
2022/05/15 11:50:31;;;;;;;2.63;2.00;;;33.80;47.50;;;;;;6024862;23;20435;-77
2022/05/15 11:53:08;;;;;;;2.37;1.93;;;32.90;47.80;;;;;;5964468;23;20800;-77
2022/05/15 11:55:44;;;;;;;2.27;2.07;;;32.40;48.10;;;;;;6030414;23;20470;-77
2022/05/15 11:58:44;;;;;;;1.80;1.70;;;32.40;48.40;;;;;;6003938;23;20447;-78
2022/05/15 12:01:19;;;;;;;3.70;2.03;;;32.60;48.60;;;;;;6030772;23;20529;-78
2022/05/15 12:03:57;;;;;;;2.80;2.20;;;32.90;47.50;;;;;;6027424;23;20455;-77
2022/05/15 12:06:31;;;;;;;3.43;1.63;;;33.10;48.40;;;;;;6030463;23;20464;-78
2022/05/15 12:09:28;;;;;;;3.80;2.50;;;33.60;47.80;;;;;;6029449;23;21022;-77
2022/05/15 12:11:57;;;;;;;2.00;1.70;;;34.10;47.10;;;;;;6028417;23;20443;-80
2022/05/15 12:14:35;;;;;;;2.10;1.90;;;34.00;47.00;;;;;;6029247;23;20493;-79
2022/05/15 12:17:20;;;;;;;1.93;1.80;;;33.10;47.70;;;;;;6029212;23;20894;-80
2022/05/15 12:19:50;;;;;;;2.87;1.93;;;32.40;48.80;;;;;;6026764;23;20555;-78
2022/05/15 12:22:18;;;;;;;2.40;1.80;;;32.40;49.40;;;;;;6038740;23;20441;-78
2022/05/15 12:24:48;;;;;;;2.00;1.80;;;32.30;49.90;;;;;;6029160;23;20495;-78
2022/05/15 12:27:22;;;;;;;2.90;2.00;;;32.20;49.40;;;;;;6026898;23;20488;-76
2022/05/15 12:30:03;;;;;;;3.50;2.00;;;31.90;48.90;;;;;;6031760;23;20445;-79
2022/05/15 12:32:35;;;;;;;3.80;1.90;;;32.00;49.10;;;;;;6029860;23;20443;-76
2022/05/15 12:35:06;;;;;;;2.60;2.00;;;31.80;50.00;;;;;;6030925;23;20476;-77
2022/05/15 12:37:48;;;;;;;2.20;1.63;;;32.30;50.20;;;;;;6031103;23;20470;-77
2022/05/15 12:40:16;;;;;;;2.23;1.90;;;32.90;49.90;;;;;;6032522;23;20856;-76
2022/05/15 12:42:43;;;;;;;2.00;1.50;;;33.20;48.00;;;;;;6029869;23;20978;-76
2022/05/15 12:45:13;;;;;;;3.03;1.97;;;33.20;47.40;;;;;;6030366;23;20479;-76
2022/05/15 12:47:41;;;;;;;2.43;2.03;;;33.20;48.00;;;;;;6031101;23;20478;-77
2022/05/15 12:50:48;;;;;;;2.40;1.93;;;32.90;47.90;;;;;;6033339;23;20501;-77
2022/05/15 12:53:24;;;;;;;3.00;1.73;;;32.90;47.20;;;;;;6013433;23;20480;-77
2022/05/15 12:55:52;;;;;;;2.83;1.83;;;32.80;47.20;;;;;;6022826;23;20475;-76
2022/05/15 12:58:31;;;;;;;2.40;2.03;;;32.20;47.80;;;;;;6031222;23;20451;-76
2022/05/15 13:00:58;;;;;;;2.30;2.07;;;32.80;49.00;;;;;;6025695;23;20452;-77
2022/05/15 13:03:25;;;;;;;1.70;1.60;;;33.80;47.60;;;;;;6030441;23;20444;-77
2022/05/15 13:05:55;;;;;;;3.30;2.00;;;34.70;46.80;;;;;;6027352;23;20547;-77
2022/05/15 13:08:25;;;;;;;2.10;1.80;;;35.10;45.10;;;;;;6033046;23;20471;-77
2022/05/15 16:24:21;;;;;;;2.43;1.97;;;29.90;41.70;;;;;;6091224;23;20577;-79
2022/05/15 16:26:53;;;;;;;2.30;2.10;;;29.10;43.10;;;;;;6085637;23;20481;-78
2022/05/15 16:29:21;;;;;;;2.03;1.93;;;28.80;43.60;;;;;;6091135;23;20516;-79
2022/05/15 16:31:50;;;;;;;2.37;2.03;;;28.80;43.50;;;;;;6083809;23;20802;-80
2022/05/15 16:34:18;;;;;;;2.77;2.00;;;28.50;42.40;;;;;;6083952;23;20466;-79
2022/05/15 16:36:45;;;;;;;2.10;1.90;;;28.50;43.70;;;;;;6092000;23;20432;-80
2022/05/15 16:39:12;;;;;;;2.63;2.20;;;28.30;45.50;;;;;;6088401;23;20516;-79
2022/05/15 16:41:40;;;;;;;4.70;2.27;;;28.00;45.10;;;;;;6088193;23;20924;-78